createdAt,value
2023-10-10T00:02:19.487Z,49.92
2023-10-10T00:04:53.067Z,49.64
2023-10-10T00:07:20.325Z,50.67
2023-10-10T00:09:47.224Z,51.48
2023-10-10T00:12:18.321Z,52.29
2023-10-10T00:14:51.220Z,53.14
2023-10-10T00:17:19.203Z,53.05
2023-10-10T00:19:55.366Z,53.89
2023-10-10T00:22:34.894Z,54.35
2023-10-10T00:25:06.089Z,54.68
2023-10-10T00:27:33.864Z,55.36
2023-10-10T00:30:01.533Z,55.77
2023-10-10T00:32:29.950Z,56.25
2023-10-10T00:34:57.180Z,55.67
2023-10-10T00:37:27.081Z,55.13
2023-10-10T00:39:53.979Z,54.62
2023-10-10T00:42:21.731Z,53.87
2023-10-10T00:44:49.399Z,53.57
2023-10-10T00:47:27.598Z,52.83
2023-10-10T00:49:54.728Z,52.67
2023-10-10T00:52:21.550Z,52.35
2023-10-10T00:54:48.481Z,51.76
2023-10-10T00:57:15.805Z,51.15
2023-10-10T00:59:46.068Z,50.62
2023-10-10T01:02:14.210Z,50.58
2023-10-10T01:04:49.581Z,50.58
2023-10-10T01:07:20.331Z,50.73
2023-10-10T01:10:09.003Z,50.63
2023-10-10T01:12:40.607Z,50.87
2023-10-10T01:15:14.320Z,51.07
2023-10-10T01:17:42.104Z,50.69
2023-10-10T01:20:35.373Z,50.69
2023-10-10T01:23:03.562Z,50.35
2023-10-10T01:25:36.245Z,50.82
2023-10-10T01:28:07.003Z,50.64
2023-10-10T01:30:58.847Z,50.31
2023-10-10T01:33:37.490Z,50.63
2023-10-10T01:36:12.744Z,51.22
2023-10-10T01:38:57.792Z,51.04
2023-10-10T01:41:32.316Z,51.64
2023-10-10T01:44:13.921Z,51.51
2023-10-10T01:46:41.987Z,51.15
2023-10-10T01:49:16.040Z,51.44
2023-10-10T01:51:45.701Z,52.01
2023-10-10T01:54:17.178Z,51.99
2023-10-10T01:56:44.115Z,51.68
2023-10-10T01:59:15.064Z,52.20
2023-10-10T02:01:45.196Z,52.03
2023-10-10T02:04:12.021Z,52.27
2023-10-10T02:06:41.645Z,52.25
2023-10-10T02:09:20.515Z,51.86
2023-10-10T02:11:56.214Z,52.80
2023-10-10T02:14:31.900Z,52.34
2023-10-10T02:17:08.079Z,52.38
2023-10-10T02:19:41.061Z,52.58
2023-10-10T02:22:20.722Z,52.54
2023-10-10T02:24:50.300Z,52.32
2023-10-10T02:27:23.561Z,52.83
2023-10-10T02:29:51.123Z,52.11
2023-10-10T02:32:20.629Z,52.37
2023-10-10T02:35:06.331Z,52.68
2023-10-10T02:37:59.298Z,52.84
2023-10-10T02:40:32.322Z,53.00
2023-10-10T02:43:17.394Z,52.81
2023-10-10T02:45:46.362Z,52.61
2023-10-10T02:48:21.612Z,52.89
2023-10-10T02:50:52.712Z,53.61
2023-10-10T02:53:20.930Z,53.38
2023-10-10T02:55:53.611Z,53.44
2023-10-10T02:58:23.264Z,53.66
2023-10-10T03:00:50.942Z,53.34
2023-10-10T03:03:23.139Z,53.75
2023-10-10T03:05:52.859Z,54.14
2023-10-10T03:08:35.812Z,55.03
2023-10-10T03:11:03.579Z,54.80
2023-10-10T03:13:30.901Z,54.58
2023-10-10T03:16:12.098Z,54.96
2023-10-10T03:18:44.758Z,54.61
2023-10-10T03:21:20.033Z,54.74
2023-10-10T03:23:57.423Z,54.92
2023-10-10T03:26:53.492Z,55.28
2023-10-10T03:29:28.753Z,55.36
2023-10-10T03:32:14.092Z,55.19
2023-10-10T03:34:55.924Z,55.49
2023-10-10T03:37:42.153Z,55.17
2023-10-10T03:40:28.506Z,55.03
2023-10-10T03:43:13.744Z,55.43
2023-10-10T03:46:01.951Z,55.37
2023-10-10T03:48:47.244Z,55.24
2023-10-10T03:51:32.419Z,55.83
2023-10-10T03:54:17.368Z,55.18
2023-10-10T03:57:02.725Z,55.61
2023-10-10T04:00:01.483Z,55.29
2023-10-10T04:02:46.602Z,55.50
2023-10-10T04:05:31.816Z,56.35
2023-10-10T04:08:17.246Z,56.77
2023-10-10T04:11:06.017Z,57.60
2023-10-10T04:13:51.140Z,57.37
2023-10-10T04:16:36.592Z,58.09
2023-10-10T04:19:21.720Z,58.14
2023-10-10T04:22:11.251Z,56.88
2023-10-10T04:25:04.447Z,57.70
2023-10-10T04:27:49.854Z,57.77
2023-10-10T04:30:35.033Z,58.33
2023-10-10T04:33:20.449Z,58.15
2023-10-10T04:36:05.898Z,58.92
2023-10-10T04:38:51.136Z,59.24
2023-10-10T04:41:38.100Z,59.32
2023-10-10T04:44:23.353Z,59.51
2023-10-10T04:47:08.979Z,60.17
2023-10-10T04:49:54.311Z,60.21
2023-10-10T04:52:39.567Z,60.76
2023-10-10T04:55:24.925Z,61.00
2023-10-10T04:58:09.833Z,61.02
2023-10-10T05:00:55.349Z,61.41
2023-10-10T05:03:40.377Z,61.76
2023-10-10T05:06:25.648Z,61.95
2023-10-10T05:09:10.944Z,61.96
2023-10-10T05:11:56.093Z,61.58
2023-10-10T05:14:41.451Z,61.23
2023-10-10T05:17:26.963Z,61.21
2023-10-10T05:20:12.189Z,61.75
2023-10-10T05:23:17.428Z,61.96
2023-10-10T05:25:44.188Z,61.93
2023-10-10T05:28:12.113Z,62.56
2023-10-10T05:30:44.089Z,62.79
2023-10-10T05:33:11.189Z,63.31
2023-10-10T05:35:38.800Z,63.70
2023-10-10T05:38:06.178Z,64.14
2023-10-10T05:40:34.862Z,64.54
2023-10-10T05:43:04.284Z,63.76
2023-10-10T05:45:31.708Z,63.95
2023-10-10T05:47:59.248Z,63.97
2023-10-10T05:50:26.176Z,64.25
2023-10-10T05:52:53.069Z,64.54
2023-10-10T05:55:19.815Z,64.49
2023-10-10T05:57:47.293Z,64.88
2023-10-10T06:00:15.226Z,64.42
2023-10-10T06:02:46.970Z,65.05
2023-10-10T06:05:16.941Z,64.96
2023-10-10T06:07:46.612Z,64.58
2023-10-10T06:10:17.581Z,65.17
2023-10-10T06:12:44.992Z,65.23
2023-10-10T06:15:13.004Z,64.63
2023-10-10T06:17:40.844Z,63.83
2023-10-10T06:20:08.304Z,63.56
2023-10-10T06:22:35.175Z,63.77
2023-10-10T06:25:03.135Z,63.14
2023-10-10T06:27:38.058Z,63.24
2023-10-10T06:30:06.474Z,63.24
2023-10-10T06:32:33.391Z,63.90
2023-10-10T06:35:25.893Z,63.52
2023-10-10T06:37:55.834Z,64.33
2023-10-10T06:40:31.346Z,63.73
2023-10-10T06:43:00.950Z,63.67
2023-10-10T06:45:36.770Z,63.74
2023-10-10T06:48:03.822Z,64.55
2023-10-10T06:50:33.523Z,63.27
2023-10-10T06:53:01.818Z,63.95
2023-10-10T06:55:38.140Z,64.50
2023-10-10T06:58:06.647Z,64.65
2023-10-10T07:00:43.889Z,63.72
2023-10-10T07:03:11.548Z,63.85
2023-10-10T07:05:41.013Z,63.84
2023-10-10T07:08:14.495Z,63.59
2023-10-10T07:10:44.461Z,63.83
2023-10-10T07:13:15.582Z,64.33
2023-10-10T07:15:43.160Z,64.52
2023-10-10T07:18:11.142Z,64.69
2023-10-10T07:20:56.797Z,64.16
2023-10-10T07:23:23.999Z,64.12
2023-10-10T07:26:00.534Z,63.30
2023-10-10T07:28:28.422Z,62.57
2023-10-10T07:30:55.825Z,62.98
2023-10-10T07:33:31.142Z,61.43
2023-10-10T07:35:58.212Z,61.73
2023-10-10T07:38:31.734Z,61.37
2023-10-10T07:40:58.501Z,62.02
2023-10-10T07:43:28.625Z,62.04
2023-10-10T07:45:58.202Z,62.65
2023-10-10T07:48:27.670Z,62.27
2023-10-10T07:51:07.276Z,62.71
2023-10-10T07:53:42.182Z,62.53
2023-10-10T07:56:09.035Z,61.70
2023-10-10T07:58:51.931Z,61.65
2023-10-10T08:01:19.828Z,60.97
2023-10-10T08:03:47.192Z,62.07
2023-10-10T08:06:18.406Z,62.06
2023-10-10T08:08:46.242Z,62.60
2023-10-10T08:11:25.948Z,62.73
2023-10-10T08:13:52.738Z,62.61
2023-10-10T08:16:23.203Z,63.25
2023-10-10T08:18:49.881Z,62.22
2023-10-10T08:21:16.898Z,61.60
2023-10-10T08:23:44.431Z,60.95
2023-10-10T08:26:19.187Z,60.90
2023-10-10T08:28:46.717Z,60.93
2023-10-10T08:31:15.090Z,60.88
2023-10-10T08:33:46.176Z,60.20
2023-10-10T08:36:25.876Z,59.91
2023-10-10T08:38:59.728Z,59.66
2023-10-10T08:41:27.819Z,59.76
2023-10-10T08:43:59.310Z,60.91
2023-10-10T08:46:30.995Z,61.63
2023-10-10T08:49:01.728Z,61.11
2023-10-10T08:51:34.971Z,61.58
2023-10-10T08:54:11.725Z,62.54
2023-10-10T08:56:54.420Z,61.89
2023-10-10T08:59:21.097Z,62.83
2023-10-10T09:01:47.851Z,62.75
2023-10-10T09:04:20.457Z,62.19
2023-10-10T09:07:14.191Z,62.23
2023-10-10T09:09:41.627Z,62.20
2023-10-10T09:12:21.112Z,61.92
2023-10-10T09:14:53.798Z,61.56
2023-10-10T09:17:30.229Z,61.50
2023-10-10T09:20:01.597Z,61.87
2023-10-10T09:22:44.496Z,61.66
2023-10-10T09:25:20.316Z,60.93
2023-10-10T09:28:05.771Z,60.77
2023-10-10T09:30:46.710Z,60.72
2023-10-10T09:33:29.139Z,60.95
2023-10-10T09:36:00.468Z,61.34
2023-10-10T09:38:28.334Z,62.43
2023-10-10T09:41:11.885Z,64.01
2023-10-10T09:43:50.412Z,64.29
2023-10-10T09:46:25.143Z,64.01
2023-10-10T09:49:18.930Z,64.28
2023-10-10T09:51:57.352Z,64.06
2023-10-10T09:54:26.806Z,63.91
2023-10-10T09:56:55.118Z,63.57
2023-10-10T09:59:22.156Z,62.85
2023-10-10T10:01:49.447Z,61.78
2023-10-10T10:04:20.508Z,62.15
2023-10-10T10:07:07.624Z,62.28
2023-10-10T10:09:46.826Z,62.53
2023-10-10T10:12:54.737Z,61.72
2023-10-10T10:15:21.299Z,62.43
2023-10-10T10:17:58.038Z,61.88
2023-10-10T10:20:35.725Z,60.69
2023-10-10T10:23:02.658Z,61.38
2023-10-10T10:25:37.502Z,61.58
2023-10-10T10:28:12.324Z,60.88
2023-10-10T10:30:48.211Z,60.86
2023-10-10T10:33:16.247Z,61.42
2023-10-10T10:35:58.070Z,61.39
2023-10-10T10:38:25.274Z,61.52
2023-10-10T10:40:52.810Z,60.84
2023-10-10T10:43:22.523Z,60.73
2023-10-10T10:45:53.153Z,61.05
2023-10-10T10:48:35.357Z,60.71
2023-10-10T10:51:27.965Z,60.96
2023-10-10T10:54:02.352Z,60.66
2023-10-10T10:56:32.569Z,60.63
2023-10-10T10:59:21.115Z,61.19
2023-10-10T11:01:58.912Z,60.27
2023-10-10T11:04:32.642Z,60.56
2023-10-10T11:07:08.918Z,60.26
2023-10-10T11:09:38.405Z,59.52
2023-10-10T11:12:09.624Z,59.14
2023-10-10T11:14:45.617Z,60.24
2023-10-10T11:17:19.729Z,60.21
2023-10-10T11:19:55.310Z,59.63
2023-10-10T11:22:40.781Z,59.51
2023-10-10T11:25:12.475Z,59.74
2023-10-10T11:27:45.569Z,59.70
2023-10-10T11:30:13.534Z,59.39
2023-10-10T11:32:50.216Z,59.29
2023-10-10T11:35:24.168Z,59.84
2023-10-10T11:38:00.556Z,60.19
2023-10-10T11:40:30.828Z,60.03
2023-10-10T11:42:58.119Z,59.87
2023-10-10T11:45:28.313Z,58.64
2023-10-10T11:48:02.184Z,60.05
2023-10-10T11:50:52.484Z,60.53
2023-10-10T11:53:21.429Z,57.41
2023-10-10T11:55:48.958Z,57.59
2023-10-10T11:58:18.841Z,58.20
2023-10-10T12:01:05.628Z,57.92
2023-10-10T12:03:42.984Z,56.27
2023-10-10T12:06:21.144Z,55.88
2023-10-10T12:08:51.964Z,56.30
2023-10-10T12:11:23.457Z,56.39
2023-10-10T12:13:51.945Z,56.44
2023-10-10T12:16:19.178Z,55.46
2023-10-10T12:18:53.980Z,55.34
2023-10-10T12:21:22.753Z,54.50
2023-10-10T12:23:51.534Z,55.18
2023-10-10T12:26:19.711Z,55.20
2023-10-10T12:28:49.630Z,54.17
2023-10-10T12:31:19.161Z,54.27
2023-10-10T12:33:55.280Z,53.79
2023-10-10T12:36:30.938Z,53.88
2023-10-10T12:38:59.588Z,54.58
2023-10-10T12:41:33.873Z,54.53
2023-10-10T12:44:00.744Z,55.12
2023-10-10T12:46:27.452Z,55.03
2023-10-10T12:48:54.242Z,55.10
2023-10-10T12:51:25.088Z,54.46
2023-10-10T12:54:01.342Z,54.49
2023-10-10T12:56:29.012Z,54.93
2023-10-10T12:59:05.196Z,54.46
2023-10-10T13:01:37.049Z,54.35
2023-10-10T13:04:09.235Z,53.41
2023-10-10T13:06:41.050Z,54.51
2023-10-10T13:09:09.897Z,54.06
2023-10-10T13:11:45.421Z,54.78
2023-10-10T13:14:25.979Z,56.27
2023-10-10T13:16:52.816Z,55.10
2023-10-10T13:19:22.009Z,56.79
2023-10-10T13:21:49.065Z,56.69
2023-10-10T13:24:16.675Z,56.46
2023-10-10T13:26:51.414Z,56.16
2023-10-10T13:29:18.737Z,55.93
2023-10-10T13:31:50.441Z,56.62
2023-10-10T13:34:19.785Z,57.30
2023-10-10T13:36:46.428Z,57.34
2023-10-10T13:39:17.344Z,57.64
2023-10-10T13:41:44.042Z,57.85
2023-10-10T13:44:12.261Z,57.10
2023-10-10T13:46:39.235Z,57.85
2023-10-10T13:49:09.971Z,58.57
2023-10-10T13:51:42.976Z,58.07
2023-10-10T13:54:09.724Z,59.42
2023-10-10T13:56:36.515Z,59.53
2023-10-10T13:59:03.705Z,59.81
2023-10-10T14:01:30.808Z,59.29
2023-10-10T14:04:05.332Z,59.78
2023-10-10T14:06:47.264Z,60.01
2023-10-10T14:09:25.928Z,59.70
2023-10-10T14:11:54.476Z,59.43
2023-10-10T14:14:22.141Z,59.95
2023-10-10T14:16:49.417Z,60.02
2023-10-10T14:19:16.158Z,59.07
2023-10-10T14:21:42.914Z,58.37
2023-10-10T14:24:09.867Z,57.35
2023-10-10T14:26:37.669Z,57.24
2023-10-10T14:29:08.752Z,57.22
2023-10-10T14:31:36.553Z,58.34
2023-10-10T14:34:04.145Z,58.74
2023-10-10T14:36:31.460Z,59.24
2023-10-10T14:39:01.181Z,60.54
2023-10-10T14:41:36.751Z,59.35
2023-10-10T14:44:05.056Z,59.54
2023-10-10T14:46:33.237Z,59.64
2023-10-10T14:49:07.457Z,60.12
2023-10-10T14:51:35.549Z,60.12
2023-10-10T14:54:13.039Z,59.75
2023-10-10T14:56:40.851Z,59.75
2023-10-10T14:59:08.165Z,59.29
2023-10-10T15:01:35.732Z,59.71
2023-10-10T15:04:06.412Z,59.44
2023-10-10T15:06:34.395Z,59.84
2023-10-10T15:09:01.530Z,59.31
2023-10-10T15:11:29.153Z,58.93
2023-10-10T15:13:58.774Z,58.72
2023-10-10T15:16:28.703Z,58.67
2023-10-10T15:18:55.636Z,58.02
2023-10-10T15:21:22.525Z,58.11
2023-10-10T15:23:49.342Z,58.54
2023-10-10T15:26:20.699Z,58.10
2023-10-10T15:28:47.739Z,59.36
2023-10-10T15:31:14.927Z,59.70
2023-10-10T15:33:44.722Z,60.12
2023-10-10T15:36:13.005Z,60.50
2023-10-10T15:38:39.934Z,60.46
2023-10-10T15:41:18.794Z,60.17
2023-10-10T15:43:48.262Z,59.04
2023-10-10T15:46:18.454Z,59.22
2023-10-10T15:48:49.830Z,60.89
2023-10-10T15:51:17.154Z,60.44
2023-10-10T15:53:43.921Z,60.32
2023-10-10T15:56:14.400Z,61.02
2023-10-10T15:58:53.778Z,62.23
2023-10-10T16:01:28.988Z,61.72
2023-10-10T16:03:56.691Z,62.25
2023-10-10T16:06:23.756Z,61.90
2023-10-10T16:08:51.362Z,62.15
2023-10-10T16:11:21.121Z,62.24
2023-10-10T16:13:49.700Z,62.31
2023-10-10T16:16:19.660Z,62.51
2023-10-10T16:18:49.572Z,61.28
2023-10-10T16:21:16.396Z,61.02
2023-10-10T16:23:46.677Z,63.34
2023-10-10T16:26:16.113Z,63.29
2023-10-10T16:28:42.879Z,61.59
2023-10-10T16:31:16.724Z,61.36
2023-10-10T16:33:43.889Z,60.98
2023-10-10T16:36:23.612Z,61.53
2023-10-10T16:38:55.788Z,62.12
2023-10-10T16:41:23.794Z,61.81
2023-10-10T16:44:00.797Z,62.07
2023-10-10T16:46:31.881Z,62.51
2023-10-10T16:48:58.921Z,62.17
2023-10-10T16:51:28.510Z,63.56
2023-10-10T16:53:56.560Z,63.73
2023-10-10T16:56:23.559Z,63.69
2023-10-10T16:58:50.975Z,63.93
2023-10-10T17:01:18.534Z,64.39
2023-10-10T17:03:46.387Z,63.59
2023-10-10T17:06:13.680Z,64.21
2023-10-10T17:08:40.693Z,64.52
2023-10-10T17:11:10.891Z,64.35
2023-10-10T17:13:40.690Z,64.50
2023-10-10T17:16:26.947Z,64.05
2023-10-10T17:18:54.838Z,64.24
2023-10-10T17:21:24.637Z,64.92
2023-10-10T17:23:51.637Z,65.07
2023-10-10T17:26:20.346Z,66.85
2023-10-10T17:28:49.384Z,67.43
2023-10-10T17:31:21.223Z,66.75
2023-10-10T17:33:48.211Z,66.66
2023-10-10T17:36:16.662Z,67.34
2023-10-10T17:38:45.104Z,67.63
2023-10-10T17:41:14.914Z,68.24
2023-10-10T17:43:44.534Z,70.13
2023-10-10T17:46:23.405Z,68.01
2023-10-10T17:48:56.243Z,69.40
2023-10-10T17:51:25.256Z,69.61
2023-10-10T17:53:55.850Z,70.73
2023-10-10T17:56:24.941Z,71.06
2023-10-10T17:58:51.846Z,72.04
2023-10-10T18:01:21.298Z,71.47
2023-10-10T18:03:49.742Z,72.16
2023-10-10T18:06:40.457Z,71.93
2023-10-10T18:09:10.244Z,71.84
2023-10-10T18:11:37.979Z,72.41
2023-10-10T18:14:06.637Z,72.22
2023-10-10T18:16:35.436Z,72.45
2023-10-10T18:19:02.888Z,72.60
2023-10-10T18:21:31.579Z,73.08
2023-10-10T18:23:58.830Z,73.48
2023-10-10T18:26:25.836Z,72.55
2023-10-10T18:28:53.720Z,72.49
2023-10-10T18:31:25.948Z,71.87
2023-10-10T18:33:55.676Z,71.44
2023-10-10T18:36:23.902Z,72.50
2023-10-10T18:38:52.453Z,72.69
2023-10-10T18:41:24.186Z,71.79
2023-10-10T18:43:51.692Z,71.89
2023-10-10T18:46:18.474Z,72.99
2023-10-10T18:48:46.709Z,73.37
2023-10-10T18:51:14.291Z,72.66
2023-10-10T18:53:41.994Z,73.57
2023-10-10T18:56:09.472Z,73.58
2023-10-10T18:58:40.446Z,72.91
2023-10-10T19:01:11.751Z,73.44
2023-10-10T19:03:48.228Z,72.91
2023-10-10T19:06:16.015Z,71.67
2023-10-10T19:08:45.655Z,72.01
2023-10-10T19:11:16.285Z,73.12
2023-10-10T19:13:50.579Z,73.40
2023-10-10T19:16:18.485Z,74.18
2023-10-10T19:18:49.005Z,73.25
2023-10-10T19:21:16.945Z,73.46
2023-10-10T19:23:44.960Z,74.34
2023-10-10T19:26:13.833Z,73.07
2023-10-10T19:28:42.948Z,73.38
2023-10-10T19:31:09.759Z,73.24
2023-10-10T19:33:36.737Z,72.86
2023-10-10T19:36:03.711Z,74.59
2023-10-10T19:38:33.141Z,74.64
2023-10-10T19:41:07.474Z,79.20
2023-10-10T19:43:37.571Z,81.91
2023-10-10T19:46:05.781Z,79.77
2023-10-10T19:48:32.678Z,79.85
2023-10-10T19:51:06.055Z,78.72
2023-10-10T19:53:34.021Z,77.57
2023-10-10T19:56:01.131Z,75.95
2023-10-10T19:58:31.604Z,77.03
2023-10-10T20:01:00.585Z,76.49
2023-10-10T20:03:29.484Z,76.44
2023-10-10T20:05:56.646Z,79.67
2023-10-10T20:08:23.396Z,79.85
2023-10-10T20:10:50.292Z,79.46
2023-10-10T20:13:18.402Z,81.18
2023-10-10T20:15:45.481Z,81.23
2023-10-10T20:18:12.563Z,81.03
2023-10-10T20:20:42.802Z,78.18
2023-10-10T20:23:10.129Z,78.54
2023-10-10T20:25:41.086Z,78.00
2023-10-10T20:28:08.657Z,80.62
2023-10-10T20:30:38.101Z,80.12
2023-10-10T20:33:06.079Z,79.35
2023-10-10T20:35:33.515Z,79.94
2023-10-10T20:38:07.454Z,81.77
2023-10-10T20:40:35.084Z,80.48
2023-10-10T20:43:03.077Z,79.19
2023-10-10T20:45:30.280Z,79.74
2023-10-10T20:47:57.666Z,80.56
2023-10-10T20:50:32.789Z,82.01
2023-10-10T20:53:00.727Z,84.58
2023-10-10T20:55:28.821Z,84.14
2023-10-10T20:57:57.513Z,82.53
2023-10-10T21:00:25.985Z,81.90
2023-10-10T21:02:54.198Z,82.09
2023-10-10T21:05:25.676Z,81.42
2023-10-10T21:07:52.849Z,80.72
2023-10-10T21:10:20.549Z,81.16
2023-10-10T21:12:47.870Z,80.42
2023-10-10T21:15:16.471Z,80.66
2023-10-10T21:17:43.985Z,80.18
2023-10-10T21:20:11.551Z,80.88
2023-10-10T21:22:41.689Z,81.94
2023-10-10T21:25:09.097Z,81.77
2023-10-10T21:27:36.477Z,81.68
2023-10-10T21:30:03.535Z,81.42
2023-10-10T21:32:30.414Z,81.20
2023-10-10T21:34:57.335Z,82.56
2023-10-10T21:37:24.513Z,85.70
2023-10-10T21:39:51.547Z,88.23
2023-10-10T21:42:20.512Z,87.76
2023-10-10T21:44:47.216Z,86.93
2023-10-10T21:47:15.708Z,84.89
2023-10-10T21:49:45.586Z,84.03
2023-10-10T21:52:12.337Z,83.33
2023-10-10T21:54:39.038Z,84.76
2023-10-10T21:57:05.702Z,83.72
2023-10-10T21:59:35.500Z,81.62
2023-10-10T22:02:02.769Z,78.80
2023-10-10T22:04:29.676Z,77.28
2023-10-10T22:06:56.506Z,79.66
2023-10-10T22:09:23.409Z,80.52
2023-10-10T22:11:50.285Z,82.43
2023-10-10T22:14:17.064Z,82.15
2023-10-10T22:16:44.825Z,82.83
2023-10-10T22:19:12.368Z,83.64
2023-10-10T22:21:40.547Z,85.06
2023-10-10T22:24:07.998Z,84.97
2023-10-10T22:26:37.901Z,84.34
2023-10-10T22:29:05.310Z,82.23
2023-10-10T22:31:32.747Z,82.24
2023-10-10T22:33:59.972Z,82.61
2023-10-10T22:36:28.920Z,83.39
2023-10-10T22:38:55.780Z,83.08
2023-10-10T22:41:22.616Z,84.22
2023-10-10T22:43:49.901Z,84.51
2023-10-10T22:46:16.822Z,83.38
2023-10-10T22:48:44.536Z,83.84
2023-10-10T22:51:14.081Z,88.00
2023-10-10T22:53:41.330Z,88.33
2023-10-10T22:56:12.817Z,86.67
2023-10-10T22:58:43.407Z,87.10
2023-10-10T23:01:16.074Z,87.54
2023-10-10T23:03:43.610Z,86.84
2023-10-10T23:06:13.450Z,87.43
2023-10-10T23:08:40.771Z,84.73
2023-10-10T23:11:09.534Z,83.58
2023-10-10T23:13:36.224Z,84.44
2023-10-10T23:16:02.999Z,86.59
2023-10-10T23:18:30.328Z,88.68
2023-10-10T23:20:57.084Z,89.42
2023-10-10T23:23:24.762Z,90.65
2023-10-10T23:25:52.272Z,89.24
2023-10-10T23:28:19.096Z,87.20
2023-10-10T23:30:45.812Z,86.98
2023-10-10T23:33:13.897Z,86.53
2023-10-10T23:35:41.545Z,86.20
2023-10-10T23:38:09.496Z,87.22
2023-10-10T23:40:45.675Z,87.33
2023-10-10T23:43:20.004Z,86.43
2023-10-10T23:45:47.709Z,86.38
2023-10-10T23:48:17.646Z,87.78
2023-10-10T23:50:45.236Z,86.91
2023-10-10T23:53:15.291Z,87.01
2023-10-10T23:55:42.490Z,89.27
2023-10-10T23:58:13.079Z,88.97
